Time;durP1;ratioP1;P1;durP2;ratioP2;P2;SDS_P1;SDS_P2;PMS_P1;PMS_P2;Temp;Humidity;BMP_temperature;BMP_pressure;BME280_temperature;BME280_humidity;BME280_pressure;Samples;Min_cycle;Max_cycle;Signal;HPM_P1;HPM_P2
2022/11/27 00:00:57;;;;;;;24.88;7.65;;;4.80;99.90;;;;;;5045754;28;20462;-63
2022/11/27 00:03:23;;;;;;;29.52;9.23;;;4.80;99.90;;;;;;5046036;28;20810;-62
2022/11/27 00:05:56;;;;;;;36.85;9.65;;;4.70;99.90;;;;;;5046143;28;20048;-63
2022/11/27 00:08:24;;;;;;;31.33;9.32;;;4.80;99.90;;;;;;5046262;28;20090;-63
2022/11/27 00:10:50;;;;;;;24.73;7.75;;;4.70;99.90;;;;;;5044593;28;20053;-62
2022/11/27 00:13:16;;;;;;;26.40;8.07;;;4.70;99.90;;;;;;5046374;28;20094;-62
2022/11/27 00:15:41;;;;;;;35.30;9.55;;;4.70;99.90;;;;;;5046008;28;20057;-62
2022/11/27 00:18:07;;;;;;;26.05;7.68;;;4.70;99.90;;;;;;5045840;28;20053;-62
2022/11/27 00:20:33;;;;;;;26.77;9.75;;;4.60;99.90;;;;;;5027982;28;20057;-62
2022/11/27 00:22:59;;;;;;;29.33;9.00;;;4.60;99.90;;;;;;5045518;28;20072;-63
2022/11/27 00:25:24;;;;;;;31.70;9.77;;;4.60;99.90;;;;;;5046317;28;20083;-62
2022/11/27 00:27:50;;;;;;;30.08;9.25;;;4.50;99.90;;;;;;5045570;28;20726;-62
2022/11/27 00:30:16;;;;;;;31.75;8.93;;;6.40;99.90;;;;;;5046142;28;20080;-62
2022/11/27 00:32:41;;;;;;;29.67;8.50;;;4.50;99.90;;;;;;5045774;28;20079;-62
2022/11/27 00:35:07;;;;;;;29.20;10.10;;;4.50;99.90;;;;;;5045957;28;20069;-62
2022/11/27 00:37:33;;;;;;;25.13;11.57;;;4.50;99.90;;;;;;5045816;28;20470;-62
2022/11/27 00:39:59;;;;;;;27.33;9.30;;;4.50;99.90;;;;;;5027705;28;20047;-62
2022/11/27 00:42:24;;;;;;;23.35;7.85;;;4.40;99.90;;;;;;5045731;28;20441;-61
2022/11/27 00:44:50;;;;;;;30.55;9.43;;;4.50;99.90;;;;;;5045996;28;20102;-63
2022/11/27 00:47:16;;;;;;;32.17;10.65;;;4.50;99.90;;;;;;5045977;28;20094;-62
2022/11/27 00:49:42;;;;;;;32.10;10.38;;;4.40;99.90;;;;;;5027901;28;20052;-62
2022/11/27 00:52:08;;;;;;;33.95;11.95;;;4.40;99.90;;;;;;5044648;28;20041;-63
2022/11/27 00:54:33;;;;;;;41.90;11.00;;;4.40;99.90;;;;;;5045630;28;20049;-62
2022/11/27 00:56:59;;;;;;;33.70;11.52;;;4.40;99.90;;;;;;5045517;28;20045;-63
2022/11/27 00:59:25;;;;;;;29.83;11.13;;;4.30;99.90;;;;;;5045751;28;20068;-61
2022/11/27 01:01:51;;;;;;;36.03;11.52;;;4.30;99.90;;;;;;5046360;28;20047;-59
2022/11/27 01:04:17;;;;;;;38.75;13.38;;;4.30;99.90;;;;;;5046131;28;20128;-59
2022/11/27 01:06:43;;;;;;;28.80;10.90;;;4.20;99.90;;;;;;5046379;28;20041;-59
2022/11/27 01:09:11;;;;;;;34.60;11.90;;;4.20;99.90;;;;;;5028048;28;20049;-59
2022/11/27 01:11:38;;;;;;;31.75;11.82;;;4.20;99.90;;;;;;5046174;28;20052;-59
2022/11/27 01:14:09;;;;;;;35.15;13.95;;;4.10;99.90;;;;;;5047491;28;20056;-59
2022/11/27 01:16:36;;;;;;;35.22;12.23;;;4.20;99.90;;;;;;5050183;28;20199;-59
2022/11/27 01:19:03;;;;;;;31.25;11.63;;;4.20;99.90;;;;;;5050122;28;20135;-59
2022/11/27 01:21:31;;;;;;;40.40;13.18;;;4.10;99.90;;;;;;5050239;28;20045;-59
2022/11/27 01:23:57;;;;;;;37.72;12.27;;;4.10;99.90;;;;;;5049797;28;20041;-59
2022/11/27 01:26:23;;;;;;;40.40;11.82;;;4.10;99.90;;;;;;5049792;28;20099;-59
2022/11/27 01:28:56;;;;;;;39.15;11.55;;;4.10;99.90;;;;;;5049381;28;20494;-59
2022/11/27 01:31:25;;;;;;;34.30;11.88;;;4.30;99.90;;;;;;5049801;28;20184;-59
2022/11/27 01:33:57;;;;;;;30.17;11.23;;;4.10;99.90;;;;;;5031483;28;20076;-59
2022/11/27 01:36:23;;;;;;;24.90;10.15;;;3.00;99.90;;;;;;5031378;28;20060;-59
2022/11/27 01:38:49;;;;;;;35.50;11.30;;;4.00;99.90;;;;;;5047806;28;20056;-60
2022/11/27 01:41:18;;;;;;;33.50;11.55;;;3.90;99.90;;;;;;5049177;28;20406;-60
2022/11/27 01:43:50;;;;;;;30.15;12.00;;;4.10;99.90;;;;;;5049404;28;20037;-59
2022/11/27 01:46:34;;;;;;;35.30;13.07;;;4.00;99.90;;;;;;5049595;28;20041;-59
2022/11/27 01:49:09;;;;;;;29.00;11.63;;;3.90;99.90;;;;;;5049729;28;20041;-59
2022/11/27 01:51:43;;;;;;;38.30;11.75;;;4.00;99.90;;;;;;5049817;28;20037;-59
2022/11/27 01:54:10;;;;;;;30.35;12.75;;;4.00;99.90;;;;;;5049784;28;20068;-59
2022/11/27 01:56:37;;;;;;;27.27;11.90;;;4.10;99.90;;;;;;5048336;28;20048;-59
2022/11/27 01:59:03;;;;;;;33.55;12.63;;;4.00;99.90;;;;;;5049499;28;20045;-59
2022/11/27 02:01:29;;;;;;;34.13;12.45;;;4.10;99.90;;;;;;5049277;28;20352;-59
2022/11/27 02:03:58;;;;;;;31.10;11.20;;;4.00;99.90;;;;;;5049588;28;20041;-59
2022/11/27 02:06:24;;;;;;;26.20;8.80;;;3.90;99.90;;;;;;5049392;28;20045;-59
2022/11/27 02:08:51;;;;;;;33.30;13.30;;;3.90;99.90;;;;;;5015011;28;20140;-59
2022/11/27 02:11:34;;;;;;;38.72;12.38;;;3.80;99.90;;;;;;5049102;28;20095;-59
2022/11/27 02:14:21;;;;;;;29.88;11.30;;;3.80;99.90;;;;;;5031221;28;20048;-59
2022/11/27 02:17:12;;;;;;;24.40;10.80;;;3.70;99.90;;;;;;5049212;28;20095;-59
2022/11/27 02:19:57;;;;;;;45.00;13.68;;;3.60;99.90;;;;;;5049268;28;20045;-59
2022/11/27 02:23:10;;;;;;;34.85;11.20;;;3.60;99.90;;;;;;5048926;28;20052;-58
2022/11/27 02:26:13;;;;;;;44.05;13.10;;;3.60;99.90;;;;;;5048905;28;20106;-59
2022/11/27 02:29:02;;;;;;;23.85;9.98;;;3.50;99.90;;;;;;5049331;28;20425;-58
2022/11/27 02:31:55;;;;;;;29.83;11.38;;;3.60;99.90;;;;;;5049279;28;20072;-59
2022/11/27 02:34:52;;;;;;;31.27;12.32;;;3.50;99.90;;;;;;5049097;28;20107;-58
2022/11/27 02:37:43;;;;;;;34.85;12.25;;;3.50;99.90;;;;;;5048856;28;20037;-58
2022/11/27 02:40:19;;;;;;;36.78;12.27;;;3.40;99.90;;;;;;5030954;28;20040;-59
2022/11/27 02:42:52;;;;;;;39.03;12.25;;;3.50;99.90;;;;;;5049203;28;20043;-59
2022/11/27 02:45:23;;;;;;;29.02;11.63;;;3.40;99.90;;;;;;5048539;28;20052;-59
2022/11/27 02:47:49;;;;;;;31.85;12.13;;;3.50;99.90;;;;;;5047519;28;20048;-59
2022/11/27 02:50:20;;;;;;;29.13;12.23;;;4.60;99.90;;;;;;5047207;28;20132;-59
2022/11/27 02:52:48;;;;;;;29.13;11.43;;;3.60;99.90;;;;;;5048898;28;20110;-59
2022/11/27 02:55:19;;;;;;;32.88;11.15;;;3.40;99.90;;;;;;5048725;28;20450;-59
2022/11/27 02:57:47;;;;;;;28.75;11.68;;;3.60;99.90;;;;;;5048510;28;20820;-59
2022/11/27 03:00:13;;;;;;;29.65;12.95;;;3.60;99.90;;;;;;5048024;28;20079;-59
2022/11/27 03:02:45;;;;;;;28.35;11.48;;;3.60;99.90;;;;;;5047934;28;20045;-59
2022/11/27 03:05:16;;;;;;;26.00;10.82;;;3.60;99.90;;;;;;5047772;28;20534;-59
2022/11/27 03:07:51;;;;;;;32.75;11.88;;;3.60;99.90;;;;;;5046483;28;20049;-59
2022/11/27 03:10:28;;;;;;;27.35;10.32;;;3.60;99.90;;;;;;5047731;28;20033;-58
2022/11/27 03:12:54;;;;;;;27.92;10.30;;;3.50;99.90;;;;;;5047904;28;20082;-59
2022/11/27 03:15:22;;;;;;;29.55;10.68;;;3.70;99.90;;;;;;5029681;28;20044;-58
2022/11/27 03:17:50;;;;;;;35.67;11.32;;;3.50;99.90;;;;;;5047563;28;20071;-59
2022/11/27 03:20:21;;;;;;;32.00;11.48;;;3.70;99.90;;;;;;5029243;28;20651;-58
2022/11/27 03:22:47;;;;;;;21.83;10.65;;;3.80;99.90;;;;;;5047694;28;20044;-59
2022/11/27 03:25:14;;;;;;;27.25;10.40;;;3.80;99.90;;;;;;5047889;28;20041;-59
2022/11/27 03:27:48;;;;;;;32.03;11.52;;;3.80;99.90;;;;;;5047601;28;20556;-58
2022/11/27 03:30:14;;;;;;;30.73;10.65;;;3.90;99.90;;;;;;5045893;28;20041;-58
2022/11/27 03:32:40;;;;;;;26.05;9.82;;;3.90;99.90;;;;;;5047689;28;20045;-58
2022/11/27 03:35:09;;;;;;;32.72;13.00;;;4.50;99.90;;;;;;5047510;28;20090;-59
2022/11/27 03:37:35;;;;;;;25.25;9.93;;;3.90;99.90;;;;;;5046248;28;20072;-58
2022/11/27 03:40:03;;;;;;;28.65;11.30;;;3.90;99.90;;;;;;5047352;28;20045;-59
2022/11/27 03:43:02;;;;;;;24.40;9.10;;;4.00;99.90;;;;;;5047055;28;20182;-59
2022/11/27 03:45:49;;;;;;;24.27;9.25;;;3.90;99.90;;;;;;5029156;28;20084;-59
2022/11/27 03:48:47;;;;;;;28.45;11.52;;;4.00;99.90;;;;;;5047273;28;20049;-59
2022/11/27 03:51:39;;;;;;;28.48;10.27;;;4.00;99.90;;;;;;5047344;28;20482;-59
2022/11/27 03:54:25;;;;;;;22.15;9.95;;;4.00;99.90;;;;;;5047439;28;20045;-59
2022/11/27 03:57:00;;;;;;;27.50;11.10;;;4.00;99.90;;;;;;5047529;28;20049;-59
2022/11/27 03:59:31;;;;;;;23.67;9.13;;;4.00;99.90;;;;;;5046852;28;20738;-59
2022/11/27 04:01:56;;;;;;;19.80;8.40;;;4.00;99.90;;;;;;5046964;28;20053;-59
2022/11/27 04:04:22;;;;;;;22.75;9.32;;;4.00;99.90;;;;;;5046697;28;20094;-59
2022/11/27 04:06:48;;;;;;;24.83;9.15;;;4.00;99.90;;;;;;5047078;28;20041;-59
2022/11/27 04:09:13;;;;;;;26.45;8.98;;;4.00;99.90;;;;;;5046377;28;20403;-59
2022/11/27 04:11:39;;;;;;;27.80;9.13;;;4.00;99.90;;;;;;5046711;28;20544;-59
2022/11/27 04:14:05;;;;;;;20.10;8.63;;;4.00;99.90;;;;;;5028712;28;20083;-60
2022/11/27 04:16:30;;;;;;;25.10;9.27;;;3.90;99.90;;;;;;5046154;28;20090;-59
2022/11/27 04:18:56;;;;;;;29.23;8.63;;;3.90;99.90;;;;;;5046434;28;20040;-59
2022/11/27 04:21:22;;;;;;;29.50;9.02;;;4.30;99.90;;;;;;5028807;28;20048;-59
2022/11/27 04:23:47;;;;;;;23.77;7.75;;;3.90;99.90;;;;;;5046749;28;20553;-59
2022/11/27 04:26:13;;;;;;;28.23;8.10;;;3.90;99.90;;;;;;5046919;28;20154;-59
2022/11/27 04:28:39;;;;;;;25.65;7.80;;;3.70;99.90;;;;;;5046322;28;20044;-58
2022/11/27 04:31:04;;;;;;;19.58;7.35;;;3.90;99.90;;;;;;5046583;28;20485;-58
2022/11/27 04:33:30;;;;;;;25.23;8.00;;;3.90;99.90;;;;;;5045517;28;20107;-59
2022/11/27 04:35:56;;;;;;;24.00;7.75;;;3.90;99.90;;;;;;5046901;28;20106;-58
2022/11/27 04:38:21;;;;;;;19.17;7.20;;;3.90;99.90;;;;;;5046819;28;20047;-59
2022/11/27 04:40:47;;;;;;;25.33;8.23;;;3.90;99.90;;;;;;5046568;28;20052;-58
2022/11/27 04:43:13;;;;;;;18.50;7.40;;;3.90;99.90;;;;;;5029162;28;20053;-59
2022/11/27 04:45:40;;;;;;;21.85;7.50;;;3.90;99.90;;;;;;5046720;28;20770;-59
2022/11/27 04:48:05;;;;;;;21.88;8.50;;;3.90;99.90;;;;;;5029078;28;20068;-59
2022/11/27 04:50:31;;;;;;;19.95;7.55;;;3.90;99.90;;;;;;5046544;28;20053;-59
2022/11/27 04:52:57;;;;;;;25.70;8.30;;;4.00;99.90;;;;;;5046201;28;20067;-59
2022/11/27 04:55:22;;;;;;;26.15;7.65;;;4.00;99.90;;;;;;5045654;28;20072;-59
2022/11/27 04:57:48;;;;;;;24.42;8.93;;;4.00;99.90;;;;;;5044957;28;20393;-59
2022/11/27 05:00:14;;;;;;;24.77;8.23;;;3.90;99.90;;;;;;5045515;28;20048;-60
2022/11/27 05:02:40;;;;;;;24.73;7.85;;;4.00;99.90;;;;;;5045148;28;20502;-60
2022/11/27 05:05:06;;;;;;;25.08;7.78;;;4.00;99.90;;;;;;5045414;28;20087;-59
2022/11/27 05:07:32;;;;;;;23.15;7.35;;;4.00;99.90;;;;;;5045165;28;20045;-59
2022/11/27 05:09:57;;;;;;;24.80;7.72;;;3.90;99.90;;;;;;5045719;28;20095;-58
2022/11/27 05:12:23;;;;;;;17.42;6.85;;;3.90;99.90;;;;;;5045924;28;20103;-58
2022/11/27 05:14:49;;;;;;;19.15;5.97;;;3.90;99.90;;;;;;5045597;28;20049;-59
2022/11/27 05:17:14;;;;;;;24.90;7.78;;;3.90;99.90;;;;;;5045805;28;20135;-58
2022/11/27 05:19:40;;;;;;;20.42;7.25;;;3.90;99.90;;;;;;5045641;28;20075;-59
2022/11/27 05:22:06;;;;;;;24.25;9.13;;;3.90;99.90;;;;;;5046042;28;20041;-59
2022/11/27 05:24:31;;;;;;;20.40;6.90;;;3.90;99.90;;;;;;5045970;28;20127;-59
2022/11/27 05:26:57;;;;;;;17.13;6.88;;;3.70;99.90;;;;;;5046031;28;20044;-58
2022/11/27 05:29:24;;;;;;;14.65;6.85;;;3.80;99.90;;;;;;5045715;28;20183;-58
2022/11/27 05:31:51;;;;;;;21.95;6.90;;;3.90;99.90;;;;;;5044229;28;20049;-58
2022/11/27 05:34:17;;;;;;;23.73;7.65;;;2.10;99.90;;;;;;5046023;28;20045;-58
2022/11/27 05:36:43;;;;;;;21.20;7.70;;;3.90;99.90;;;;;;5045836;28;20467;-59
2022/11/27 05:39:09;;;;;;;22.48;7.97;;;4.40;99.90;;;;;;5045782;28;20475;-59
2022/11/27 05:41:37;;;;;;;17.38;6.47;;;3.30;99.90;;;;;;5045996;28;20041;-59
2022/11/27 05:44:04;;;;;;;22.20;7.88;;;3.70;99.90;;;;;;5046074;28;20058;-59
2022/11/27 05:46:29;;;;;;;22.25;6.75;;;3.80;99.90;;;;;;5046335;28;20037;-59
2022/11/27 05:48:55;;;;;;;19.88;6.40;;;3.70;99.90;;;;;;5045143;28;20819;-58
2022/11/27 05:51:21;;;;;;;20.33;6.28;;;3.70;99.90;;;;;;5046199;28;20044;-59
2022/11/27 05:53:46;;;;;;;21.80;7.55;;;3.70;99.90;;;;;;5046004;28;20095;-59
2022/11/27 05:56:14;;;;;;;18.88;6.60;;;3.60;99.90;;;;;;5045425;28;20544;-59
2022/11/27 05:58:42;;;;;;;19.05;7.25;;;3.70;99.90;;;;;;5045914;28;20040;-59
2022/11/27 06:01:08;;;;;;;23.83;8.50;;;3.60;99.90;;;;;;5048533;28;20045;-60
2022/11/27 06:03:34;;;;;;;23.60;9.27;;;3.60;99.90;;;;;;5049291;28;20052;-59
2022/11/27 06:06:12;;;;;;;18.63;6.90;;;3.60;99.90;;;;;;5049034;28;20157;-60
2022/11/27 06:08:39;;;;;;;18.88;7.95;;;3.60;99.90;;;;;;5049182;28;20059;-59
2022/11/27 06:11:07;;;;;;;17.85;7.13;;;3.60;99.90;;;;;;5048958;28;20045;-59
2022/11/27 06:13:33;;;;;;;21.60;7.07;;;3.60;99.90;;;;;;5049297;28;20571;-59
2022/11/27 06:16:21;;;;;;;22.48;8.15;;;3.60;99.90;;;;;;5048820;28;20167;-58
2022/11/27 06:18:52;;;;;;;23.20;7.35;;;3.60;99.90;;;;;;5049028;28;20087;-60
2022/11/27 06:21:19;;;;;;;16.92;7.05;;;3.50;99.90;;;;;;5048512;28;20053;-59
2022/11/27 06:23:44;;;;;;;19.88;7.05;;;3.60;99.90;;;;;;5048629;28;20041;-59
2022/11/27 06:26:19;;;;;;;20.10;7.75;;;3.60;99.90;;;;;;5049044;28;20090;-59
2022/11/27 06:28:46;;;;;;;18.77;7.40;;;3.60;99.90;;;;;;5048898;28;20136;-59
2022/11/27 06:31:18;;;;;;;18.58;7.10;;;3.40;99.90;;;;;;5049257;28;20718;-58
2022/11/27 06:33:45;;;;;;;18.38;6.68;;;3.60;99.90;;;;;;5048473;28;20494;-59
2022/11/27 06:36:10;;;;;;;20.35;7.32;;;3.60;99.90;;;;;;5047440;28;20505;-59
2022/11/27 06:38:37;;;;;;;15.85;7.43;;;3.60;99.90;;;;;;5048711;28;20045;-59
2022/11/27 06:41:04;;;;;;;20.35;8.38;;;3.60;99.90;;;;;;5048404;28;20777;-59
2022/11/27 06:43:29;;;;;;;21.83;9.05;;;3.60;99.90;;;;;;5031049;28;20102;-58
2022/11/27 06:45:56;;;;;;;14.57;6.55;;;3.60;99.90;;;;;;5048572;28;20056;-59
2022/11/27 06:48:22;;;;;;;18.15;7.70;;;3.60;99.90;;;;;;5030583;28;20493;-59
2022/11/27 06:50:48;;;;;;;17.70;7.05;;;3.60;99.90;;;;;;5048744;28;20045;-59
2022/11/27 06:53:13;;;;;;;20.85;6.90;;;4.30;99.90;;;;;;5048752;28;20076;-59
2022/11/27 06:55:39;;;;;;;18.27;7.80;;;3.70;99.90;;;;;;5048503;28;20048;-59
2022/11/27 06:58:04;;;;;;;21.52;7.85;;;3.70;99.90;;;;;;5030100;28;20049;-59
2022/11/27 07:00:30;;;;;;;17.42;7.57;;;3.70;99.90;;;;;;5048600;28;20041;-59
2022/11/27 07:02:56;;;;;;;16.35;6.88;;;4.60;99.90;;;;;;5048265;28;20037;-59
2022/11/27 07:05:23;;;;;;;15.30;7.20;;;3.60;99.90;;;;;;5048269;28;20506;-59
2022/11/27 07:07:48;;;;;;;18.63;7.25;;;3.60;99.90;;;;;;5030297;28;20045;-59
2022/11/27 07:10:14;;;;;;;19.08;7.60;;;3.70;99.90;;;;;;5048150;28;20056;-59
2022/11/27 07:12:40;;;;;;;18.80;7.22;;;3.60;99.90;;;;;;5048171;28;20047;-59
2022/11/27 07:15:06;;;;;;;18.52;6.40;;;3.70;99.90;;;;;;5046572;28;20429;-59
2022/11/27 07:17:33;;;;;;;20.95;7.65;;;3.70;99.90;;;;;;5048033;28;20119;-59
2022/11/27 07:19:59;;;;;;;17.23;7.50;;;4.00;99.90;;;;;;5047553;28;20538;-59
2022/11/27 07:22:24;;;;;;;18.42;7.72;;;3.70;99.90;;;;;;5047810;28;20048;-59
2022/11/27 07:24:50;;;;;;;20.65;8.23;;;3.70;99.90;;;;;;5047518;28;20081;-59
2022/11/27 07:27:16;;;;;;;17.40;7.75;;;3.50;99.90;;;;;;5029662;28;20078;-58
2022/11/27 07:29:41;;;;;;;18.73;6.22;;;3.80;99.90;;;;;;5029715;28;20067;-58
2022/11/27 07:32:07;;;;;;;19.88;6.55;;;3.80;99.90;;;;;;5047407;28;20122;-59
2022/11/27 07:34:32;;;;;;;22.20;8.55;;;5.10;99.90;;;;;;5047449;28;20068;-58
2022/11/27 07:36:58;;;;;;;20.38;7.68;;;4.80;99.90;;;;;;5029201;28;20064;-58
2022/11/27 07:39:24;;;;;;;18.83;7.78;;;3.80;99.90;;;;;;5047614;28;20052;-58
2022/11/27 07:41:50;;;;;;;19.75;8.27;;;5.10;99.90;;;;;;5047372;28;20041;-59
2022/11/27 07:44:15;;;;;;;19.40;7.85;;;3.20;99.90;;;;;;5047047;28;20076;-59
2022/11/27 07:46:41;;;;;;;14.32;6.82;;;3.90;99.90;;;;;;5047259;28;20045;-59
2022/11/27 07:49:07;;;;;;;18.27;6.65;;;3.90;99.90;;;;;;5047138;28;20447;-59
2022/11/27 07:51:32;;;;;;;24.38;9.20;;;3.90;99.90;;;;;;5046973;28;20048;-59
2022/11/27 07:53:59;;;;;;;20.63;8.85;;;3.90;99.90;;;;;;5047220;28;20041;-58
2022/11/27 07:56:24;;;;;;;24.73;9.27;;;3.90;99.90;;;;;;5046909;28;20505;-59
2022/11/27 07:58:50;;;;;;;21.85;10.48;;;4.00;99.90;;;;;;5047196;28;20041;-59
2022/11/27 08:01:17;;;;;;;19.20;9.50;;;4.70;99.90;;;;;;5046890;28;20486;-59
2022/11/27 08:03:45;;;;;;;20.60;8.65;;;3.90;99.90;;;;;;5047468;28;20056;-59
2022/11/27 08:06:23;;;;;;;20.15;8.07;;;3.80;99.90;;;;;;5045415;28;20065;-59
2022/11/27 08:08:49;;;;;;;18.95;8.70;;;4.00;99.90;;;;;;5047009;28;20065;-59
2022/11/27 08:11:28;;;;;;;21.02;9.00;;;4.00;99.90;;;;;;5046568;28;20171;-59
2022/11/27 08:13:57;;;;;;;15.00;7.95;;;4.00;99.90;;;;;;5045507;28;20053;-58
2022/11/27 08:16:22;;;;;;;20.02;7.72;;;4.00;99.90;;;;;;5046340;28;20057;-59
2022/11/27 08:18:48;;;;;;;20.05;7.35;;;4.00;99.90;;;;;;5046860;28;20052;-59
2022/11/27 08:21:14;;;;;;;18.77;7.10;;;4.10;99.90;;;;;;5028301;28;20049;-58
2022/11/27 08:23:39;;;;;;;15.20;7.82;;;4.10;99.90;;;;;;5028046;28;20051;-59
2022/11/27 08:26:07;;;;;;;20.10;8.52;;;4.20;99.90;;;;;;5046427;28;20033;-59
2022/11/27 08:28:33;;;;;;;14.45;6.85;;;4.20;99.90;;;;;;5046427;28;20048;-58
2022/11/27 08:31:01;;;;;;;19.15;7.72;;;4.30;99.90;;;;;;5046580;28;20106;-58
2022/11/27 08:33:27;;;;;;;12.50;6.28;;;4.30;99.90;;;;;;5046398;28;20075;-58
2022/11/27 08:35:53;;;;;;;16.67;7.22;;;4.40;99.90;;;;;;5028652;28;20061;-58
2022/11/27 08:38:19;;;;;;;17.73;8.23;;;4.40;99.90;;;;;;5046516;28;20119;-59
2022/11/27 08:40:45;;;;;;;19.58;8.02;;;4.40;99.90;;;;;;5028698;28;20045;-59
2022/11/27 08:43:10;;;;;;;19.42;7.80;;;4.50;99.90;;;;;;5046490;28;20072;-59
2022/11/27 08:45:39;;;;;;;14.10;7.72;;;4.20;99.90;;;;;;5028534;28;20044;-59
2022/11/27 08:48:05;;;;;;;17.92;6.75;;;4.50;99.90;;;;;;5045964;28;20041;-59
2022/11/27 08:50:30;;;;;;;18.90;9.82;;;4.50;99.90;;;;;;5046221;28;20098;-59
2022/11/27 08:52:56;;;;;;;13.73;6.50;;;4.50;99.90;;;;;;5045931;28;20128;-59
2022/11/27 08:55:22;;;;;;;14.95;7.53;;;4.60;99.90;;;;;;5045689;28;20114;-59
2022/11/27 08:57:47;;;;;;;15.45;7.28;;;4.50;99.90;;;;;;5045774;28;20076;-59
2022/11/27 09:00:13;;;;;;;19.52;8.20;;;4.30;99.90;;;;;;5045645;28;20037;-59
2022/11/27 09:02:39;;;;;;;16.38;6.68;;;4.60;99.90;;;;;;5044655;28;20145;-59
2022/11/27 09:05:05;;;;;;;18.60;8.23;;;4.60;99.90;;;;;;5044840;28;20116;-59
2022/11/27 09:07:31;;;;;;;13.20;6.75;;;4.60;99.90;;;;;;5045815;28;20482;-59
2022/11/27 09:09:56;;;;;;;14.45;7.20;;;4.60;99.90;;;;;;5046039;28;20045;-59
2022/11/27 09:12:22;;;;;;;18.10;7.13;;;4.60;99.90;;;;;;5046072;28;20041;-58
2022/11/27 09:14:48;;;;;;;15.85;8.30;;;4.60;99.90;;;;;;5041814;28;20490;-59
2022/11/27 09:17:13;;;;;;;14.95;7.70;;;4.60;99.90;;;;;;5027772;28;20061;-59
2022/11/27 09:19:39;;;;;;;17.85;8.55;;;4.70;99.90;;;;;;5046231;28;20033;-59
2022/11/27 09:22:05;;;;;;;17.13;6.93;;;5.30;99.90;;;;;;5046248;28;20049;-59
2022/11/27 09:24:30;;;;;;;14.88;7.32;;;4.60;99.90;;;;;;5028169;28;20049;-59
2022/11/27 09:26:56;;;;;;;15.88;6.82;;;4.70;99.90;;;;;;5046163;28;20128;-58
2022/11/27 09:29:22;;;;;;;16.25;6.85;;;4.70;99.90;;;;;;5046412;28;20044;-58
2022/11/27 09:31:47;;;;;;;18.60;7.03;;;4.70;99.90;;;;;;5045913;28;20047;-58
2022/11/27 09:34:13;;;;;;;15.93;6.82;;;4.60;99.90;;;;;;5027581;28;20141;-59
2022/11/27 09:36:39;;;;;;;17.58;7.40;;;4.70;99.90;;;;;;5049580;28;20146;-59
2022/11/27 09:39:05;;;;;;;12.80;6.25;;;4.80;99.90;;;;;;5049446;28;20496;-59
2022/11/27 09:41:38;;;;;;;16.35;7.03;;;4.80;99.90;;;;;;5049142;28;20037;-59
2022/11/27 09:44:31;;;;;;;19.73;7.72;;;4.80;99.90;;;;;;5049503;28;20052;-59
2022/11/27 09:47:14;;;;;;;17.88;7.28;;;4.80;99.90;;;;;;5049050;28;20033;-58
2022/11/27 09:50:11;;;;;;;21.48;8.18;;;4.80;99.90;;;;;;5049018;28;20158;-59
2022/11/27 09:52:53;;;;;;;15.23;6.32;;;4.60;99.90;;;;;;5048668;28;20094;-59
2022/11/27 09:55:22;;;;;;;14.80;6.75;;;4.80;99.90;;;;;;5048814;28;20045;-59
2022/11/27 09:57:59;;;;;;;17.85;7.68;;;4.70;99.90;;;;;;5048830;28;20056;-58
2022/11/27 10:00:25;;;;;;;17.30;7.20;;;4.70;99.90;;;;;;5048704;28;20052;-59
2022/11/27 10:02:51;;;;;;;16.00;7.60;;;4.70;99.90;;;;;;5049069;28;20037;-59
2022/11/27 10:05:20;;;;;;;22.83;8.40;;;4.70;99.90;;;;;;5049062;28;20168;-59
2022/11/27 10:08:18;;;;;;;15.95;8.07;;;4.70;99.90;;;;;;5048950;28;20118;-59
2022/11/27 10:10:50;;;;;;;21.73;8.10;;;4.70;99.90;;;;;;5025715;28;20061;-59
2022/11/27 10:13:38;;;;;;;26.40;10.68;;;4.60;99.90;;;;;;5049449;28;20402;-59
2022/11/27 10:16:15;;;;;;;22.08;8.85;;;4.60;99.90;;;;;;5049238;28;20096;-59
2022/11/27 10:18:53;;;;;;;19.65;8.45;;;4.60;99.90;;;;;;5048991;28;20762;-58
2022/11/27 10:21:53;;;;;;;19.52;8.77;;;4.60;99.90;;;;;;5048753;28;20411;-59
2022/11/27 10:24:42;;;;;;;19.30;8.07;;;4.60;99.90;;;;;;5043929;28;20071;-59
2022/11/27 10:27:26;;;;;;;22.40;9.77;;;4.60;99.90;;;;;;5049011;28;20041;-58
2022/11/27 10:29:54;;;;;;;19.00;8.60;;;4.60;99.90;;;;;;5031130;28;20673;-58
2022/11/27 10:32:25;;;;;;;19.80;9.40;;;4.60;99.90;;;;;;5048659;28;20049;-58
2022/11/27 10:34:56;;;;;;;24.35;9.60;;;4.40;99.90;;;;;;5048856;28;20047;-58
2022/11/27 10:37:51;;;;;;;26.92;10.25;;;4.60;99.90;;;;;;5048739;28;20051;-59
2022/11/27 10:40:23;;;;;;;23.58;10.48;;;4.60;99.90;;;;;;5029398;28;20076;-59
2022/11/27 10:43:07;;;;;;;22.88;9.48;;;4.60;99.90;;;;;;5048714;28;20045;-58
2022/11/27 10:45:46;;;;;;;18.35;8.85;;;4.60;99.90;;;;;;5047410;28;20156;-59
2022/11/27 10:48:12;;;;;;;19.60;8.90;;;4.60;99.90;;;;;;5048206;28;20120;-59
2022/11/27 10:50:40;;;;;;;20.77;8.85;;;5.60;99.90;;;;;;5046637;28;20036;-59
2022/11/27 10:53:14;;;;;;;22.17;9.57;;;4.70;99.90;;;;;;5048508;28;20032;-59
2022/11/27 10:55:59;;;;;;;23.70;9.10;;;4.60;99.90;;;;;;5043350;28;20056;-59
2022/11/27 10:58:39;;;;;;;23.55;9.70;;;4.60;99.90;;;;;;5047615;28;20048;-60
2022/11/27 11:01:11;;;;;;;22.80;9.27;;;4.70;99.90;;;;;;5048248;28;20131;-59
2022/11/27 11:03:37;;;;;;;22.42;8.98;;;4.40;99.90;;;;;;5047988;28;20053;-57
2022/11/27 11:06:07;;;;;;;28.88;10.10;;;4.70;99.90;;;;;;5030326;28;20063;-57
2022/11/27 11:08:35;;;;;;;27.23;9.90;;;4.70;99.90;;;;;;5047929;28;20052;-47
2022/11/27 11:11:03;;;;;;;25.48;10.52;;;4.60;99.90;;;;;;5030261;28;20045;-45
2022/11/27 11:13:38;;;;;;;26.88;9.73;;;5.30;99.90;;;;;;5047697;28;20041;-47
2022/11/27 11:16:14;;;;;;;26.73;10.13;;;4.80;99.90;;;;;;5047541;28;20053;-49
2022/11/27 11:18:45;;;;;;;22.05;8.43;;;4.80;99.90;;;;;;5047430;28;20053;-47
2022/11/27 11:21:39;;;;;;;28.95;10.20;;;4.80;99.90;;;;;;5047940;28;20122;-50
2022/11/27 11:24:21;;;;;;;30.45;10.35;;;4.80;99.90;;;;;;5041293;28;20053;-48
2022/11/27 11:26:51;;;;;;;27.63;10.80;;;4.80;99.90;;;;;;5047896;28;20119;-46
2022/11/27 11:29:27;;;;;;;24.50;10.45;;;4.80;99.90;;;;;;5046859;28;20124;-47
2022/11/27 11:31:54;;;;;;;28.90;10.93;;;4.90;99.90;;;;;;5048147;28;20057;-45
2022/11/27 11:34:26;;;;;;;23.85;10.30;;;4.90;99.90;;;;;;5047419;28;20045;-46
2022/11/27 11:37:16;;;;;;;25.02;10.75;;;4.90;99.90;;;;;;5047713;28;20065;-46
2022/11/27 11:39:51;;;;;;;21.80;9.63;;;4.80;99.90;;;;;;5047539;28;20044;-51
2022/11/27 11:42:23;;;;;;;24.73;10.27;;;4.90;99.90;;;;;;5047641;28;20084;-49
2022/11/27 11:44:50;;;;;;;;;;;5.70;99.90;;;;;;5048073;28;20303;-44
2022/11/27 11:47:18;;;;;;;24.90;9.88;;;4.90;99.90;;;;;;5047593;28;19920;-48
2022/11/27 11:49:44;;;;;;;30.10;11.15;;;4.80;99.90;;;;;;5047540;28;20083;-58
2022/11/27 11:52:30;;;;;;;23.17;9.90;;;4.80;99.90;;;;;;5029297;28;20056;-58
2022/11/27 11:55:21;;;;;;;23.63;10.25;;;5.00;99.90;;;;;;5047790;28;20098;-61
2022/11/27 11:58:14;;;;;;;24.77;10.90;;;5.00;99.90;;;;;;5046556;28;20041;-57
2022/11/27 12:00:47;;;;;;;24.08;10.18;;;5.00;99.90;;;;;;5047499;28;20386;-57
2022/11/27 12:03:22;;;;;;;23.45;10.80;;;5.00;99.90;;;;;;5048205;28;20044;-58
2022/11/27 12:05:59;;;;;;;22.95;10.25;;;4.90;99.90;;;;;;5047480;28;20048;-53
2022/11/27 12:08:50;;;;;;;27.65;10.48;;;5.10;99.90;;;;;;5047563;28;20047;-52
2022/11/27 12:11:18;;;;;;;22.33;10.20;;;5.20;99.90;;;;;;5047322;28;20048;-53
2022/11/27 12:14:01;;;;;;;31.95;12.10;;;5.00;99.90;;;;;;5043738;28;20064;-59
2022/11/27 12:16:51;;;;;;;26.08;12.07;;;5.20;99.90;;;;;;5044052;28;20064;-62
2022/11/27 12:19:37;;;;;;;29.77;12.60;;;6.40;99.90;;;;;;5045408;28;20045;-58
2022/11/27 12:22:25;;;;;;;31.25;12.10;;;5.30;99.90;;;;;;5044414;28;20053;-59
2022/11/27 12:25:18;;;;;;;28.95;11.98;;;5.30;99.90;;;;;;5027750;28;20126;-59
2022/11/27 12:27:59;;;;;;;25.63;12.23;;;5.30;99.90;;;;;;5027846;28;20045;-58
2022/11/27 12:30:38;;;;;;;21.90;12.95;;;5.30;99.90;;;;;;5027715;28;20040;-58
2022/11/27 12:33:19;;;;;;;32.28;13.70;;;5.40;99.90;;;;;;5045828;28;20041;-57
2022/11/27 12:35:57;;;;;;;26.48;11.65;;;5.40;99.90;;;;;;5045608;28;20048;-61
2022/11/27 12:38:40;;;;;;;26.58;11.05;;;5.40;99.90;;;;;;5028203;28;20691;-64
2022/11/27 12:41:09;;;;;;;24.38;11.30;;;5.40;99.90;;;;;;5046511;28;20078;-62
2022/11/27 12:43:40;;;;;;;26.60;10.95;;;5.40;99.90;;;;;;5046655;28;20049;-60
2022/11/27 12:46:09;;;;;;;23.15;9.98;;;5.10;99.90;;;;;;5045472;28;20079;-65
2022/11/27 12:48:50;;;;;;;21.95;10.32;;;5.70;99.90;;;;;;5027613;28;20167;-61
2022/11/27 12:51:22;;;;;;;20.47;9.73;;;5.70;99.90;;;;;;5027360;28;20060;-62
2022/11/27 12:53:54;;;;;;;22.55;10.38;;;6.30;99.90;;;;;;5027199;28;20184;-63
2022/11/27 12:56:20;;;;;;;26.55;10.38;;;5.10;99.90;;;;;;5028718;28;20060;-61
2022/11/27 12:58:52;;;;;;;22.60;10.55;;;5.20;99.90;;;;;;5026959;28;20384;-60
2022/11/27 13:01:25;;;;;;;23.05;10.82;;;5.50;99.90;;;;;;5045099;28;20045;-61